Ludlow, Illinois
Current Conditions -  °F | °C
As of 12:15 PM on Sunday 25 Jan 2015 (Local Time) from KTIP Reporting Station
Light Rain Light Rain  
Wind Chill: 27°   Ceiling: 300
Heat Index: 36°   Visibility: 3mi
Dew Point: 35°   Wind: 15mph
Humidity: 96%   Direction: 40°NE
Pressure: 29.65"   Gusts: 21mph
Location:  40.39°N, 88.13°W
Report Text: KTIP 251815Z AUTO 04013G18KT 3SM -RA OVC003 02/02 A2965 RMK AO2 T00220016
Loading
Personal Weather Stations






























Interactive Weather Map New forecast layout! Learn more

10-Day Weather Forecast

Advertisements
Track Severe Weather on mobile